Abita Springs, Louisiana
Current Conditions -  °F | °C
As of 10:53 PM on Wednesday 26 Nov 2014 (Local Time) from KASD Reporting Station
Clear Clear  
Wind Chill: 56°   Ceiling: Unl
Heat Index: 56°   Visibility: 10mi
Dew Point: 48°   Wind: 3mph
Humidity: 75%   Direction: NA
Pressure: 30.24"   Gusts: NA
Location:  30.48°N, 90.04°W
Report Text: KASD 270453Z AUTO VRB03KT 10SM CLR 13/09 A3024 RMK AO2 SLP240 T01330089
Loading
Personal Weather Stations






























Interactive Weather Map New forecast layout! Learn more

10-Day Weather Forecast

Advertisements
Track Severe Weather on mobile